sensor_id;sensor_type;location;lat;lon;timestamp;pressure;altitude;pressure_sealevel;temperature;humidity
63665;BME280;49820;33.966;73.390;2023-04-05T02:01:38;78813.09;;;11.02;55.75
63665;BME280;49820;33.966;73.390;2023-04-05T02:04:08;78800.88;;;11.09;56.91
63665;BME280;49820;33.966;73.390;2023-04-05T02:06:37;78802.34;;;11.31;60.93
63665;BME280;49820;33.966;73.390;2023-04-05T02:09:07;78796.88;;;11.35;59.18
63665;BME280;49820;33.966;73.390;2023-04-05T02:37:33;78807.72;;;13.63;53.29
63665;BME280;49820;33.966;73.390;2023-04-05T02:40:07;78832.66;;;14.01;52.85
63665;BME280;49820;33.966;73.390;2023-04-05T02:42:40;78825.38;;;13.98;54.78
63665;BME280;49820;33.966;73.390;2023-04-05T02:45:10;78839.03;;;14.31;51.11
63665;BME280;49820;33.966;73.390;2023-04-05T02:47:39;78818.25;;;14.30;51.80
63665;BME280;49820;33.966;73.390;2023-04-05T02:50:08;78801.09;;;14.21;50.95
63665;BME280;49820;33.966;73.390;2023-04-05T02:52:42;78843.53;;;14.37;53.01
63665;BME280;49820;33.966;73.390;2023-04-05T02:55:11;78819.31;;;14.39;51.85
63665;BME280;49820;33.966;73.390;2023-04-05T02:57:43;78847.75;;;14.90;51.74
63665;BME280;49820;33.966;73.390;2023-04-05T03:00:32;78847.81;;;15.07;51.07
63665;BME280;49820;33.966;73.390;2023-04-05T03:03:02;78790.88;;;15.00;51.88
63665;BME280;49820;33.966;73.390;2023-04-05T03:05:33;78806.75;;;15.25;50.31
63665;BME280;49820;33.966;73.390;2023-04-05T03:08:03;78854.84;;;15.54;51.96
63665;BME280;49820;33.966;73.390;2023-04-05T03:10:35;78850.78;;;15.55;49.64
63665;BME280;49820;33.966;73.390;2023-04-05T03:13:13;78866.16;;;15.92;51.18
63665;BME280;49820;33.966;73.390;2023-04-05T03:15:44;78864.88;;;16.24;49.11
63665;BME280;49820;33.966;73.390;2023-04-05T03:18:16;78839.16;;;15.94;50.30
63665;BME280;49820;33.966;73.390;2023-04-05T03:20:48;78857.47;;;16.25;49.49
63665;BME280;49820;33.966;73.390;2023-04-05T03:23:21;78856.88;;;16.72;46.65
63665;BME280;49820;33.966;73.390;2023-04-05T03:26:00;78864.97;;;16.72;50.37
63665;BME280;49820;33.966;73.390;2023-04-05T03:28:34;78871.28;;;16.67;47.62
63665;BME280;49820;33.966;73.390;2023-04-05T03:31:06;78871.75;;;16.55;51.08
63665;BME280;49820;33.966;73.390;2023-04-05T03:33:55;78858.09;;;16.59;48.67
63665;BME280;49820;33.966;73.390;2023-04-05T03:36:28;78873.38;;;16.81;48.48
63665;BME280;49820;33.966;73.390;2023-04-05T03:39:22;78873.06;;;16.72;50.73
63665;BME280;49820;33.966;73.390;2023-04-05T03:41:51;78881.44;;;16.98;48.84
63665;BME280;49820;33.966;73.390;2023-04-05T03:44:21;78852.88;;;17.03;47.72
63665;BME280;49820;33.966;73.390;2023-04-05T03:46:49;78865.75;;;17.02;49.83
63665;BME280;49820;33.966;73.390;2023-04-05T03:49:21;78871.41;;;16.96;49.81
63665;BME280;49820;33.966;73.390;2023-04-05T03:51:50;78870.19;;;16.93;49.88
63665;BME280;49820;33.966;73.390;2023-04-05T03:54:19;78866.63;;;17.13;50.39
63665;BME280;49820;33.966;73.390;2023-04-05T03:56:54;78863.25;;;16.82;48.97
63665;BME280;49820;33.966;73.390;2023-04-05T03:59:24;78872.38;;;16.89;50.55
63665;BME280;49820;33.966;73.390;2023-04-05T04:01:53;78835.63;;;16.64;50.18
63665;BME280;49820;33.966;73.390;2023-04-05T04:04:24;78825.81;;;16.57;49.84
63665;BME280;49820;33.966;73.390;2023-04-05T04:06:55;78852.63;;;16.77;52.20
63665;BME280;49820;33.966;73.390;2023-04-05T04:09:26;78829.75;;;16.60;50.77
63665;BME280;49820;33.966;73.390;2023-04-05T04:12:05;78862.28;;;16.39;51.22
63665;BME280;49820;33.966;73.390;2023-04-05T04:14:38;78832.47;;;16.10;51.53
63665;BME280;49820;33.966;73.390;2023-04-05T04:17:31;78869.94;;;16.32;54.25
63665;BME280;49820;33.966;73.390;2023-04-05T04:20:24;78871.84;;;16.36;55.17
63665;BME280;49820;33.966;73.390;2023-04-05T04:23:29;78860.16;;;16.08;54.35
63665;BME280;49820;33.966;73.390;2023-04-05T04:26:20;78859.41;;;16.10;53.05
63665;BME280;49820;33.966;73.390;2023-04-05T04:29:11;78857.03;;;15.85;53.18
63665;BME280;49820;33.966;73.390;2023-04-05T04:31:57;78789.81;;;14.93;53.17
63665;BME280;49820;33.966;73.390;2023-04-05T04:34:48;78865.38;;;15.60;53.94
63665;BME280;49820;33.966;73.390;2023-04-05T04:37:40;78864.88;;;15.37;54.90
63665;BME280;49820;33.966;73.390;2023-04-05T04:40:32;78864.59;;;15.26;54.02
63665;BME280;49820;33.966;73.390;2023-04-05T04:43:34;78847.97;;;15.03;56.10
63665;BME280;49820;33.966;73.390;2023-04-05T04:46:16;78888.84;;;15.07;54.17
63665;BME280;49820;33.966;73.390;2023-04-05T04:48:56;78888.25;;;15.23;57.47
63665;BME280;49820;33.966;73.390;2023-04-05T04:51:32;78872.47;;;14.95;54.38
63665;BME280;49820;33.966;73.390;2023-04-05T04:54:02;78849.47;;;14.60;53.69
63665;BME280;49820;33.966;73.390;2023-04-05T04:56:31;78889.63;;;14.85;56.49
63665;BME280;49820;33.966;73.390;2023-04-05T04:59:00;78872.81;;;14.66;50.59
63665;BME280;49820;33.966;73.390;2023-04-05T05:01:30;78902.59;;;14.60;53.12
63665;BME280;49820;33.966;73.390;2023-04-05T05:04:02;78895.78;;;14.63;54.28
63665;BME280;49820;33.966;73.390;2023-04-05T05:06:35;78866.91;;;14.42;53.95
63665;BME280;49820;33.966;73.390;2023-04-05T05:09:05;78863.88;;;14.32;53.53
63665;BME280;49820;33.966;73.390;2023-04-05T05:11:47;78902.19;;;14.72;57.43
63665;BME280;49820;33.966;73.390;2023-04-05T05:14:16;78912.78;;;14.76;55.13
63665;BME280;49820;33.966;73.390;2023-04-05T05:16:46;78890.34;;;14.65;51.95
63665;BME280;49820;33.966;73.390;2023-04-05T05:19:17;78889.13;;;14.41;50.55
63665;BME280;49820;33.966;73.390;2023-04-05T05:21:49;78902.66;;;14.37;51.45
63665;BME280;49820;33.966;73.390;2023-04-05T05:24:20;78895.41;;;14.33;52.55
63665;BME280;49820;33.966;73.390;2023-04-05T05:26:50;78895.53;;;14.29;52.40
63665;BME280;49820;33.966;73.390;2023-04-05T05:29:19;78886.69;;;14.33;52.64
63665;BME280;49820;33.966;73.390;2023-04-05T05:31:49;78893.69;;;14.65;55.68
63665;BME280;49820;33.966;73.390;2023-04-05T05:34:18;78908.50;;;14.64;55.70
63665;BME280;49820;33.966;73.390;2023-04-05T05:36:51;78893.44;;;14.32;52.70
63665;BME280;49820;33.966;73.390;2023-04-05T05:39:21;78903.47;;;14.33;52.71
63665;BME280;49820;33.966;73.390;2023-04-05T05:41:50;78897.63;;;14.47;54.72
63665;BME280;49820;33.966;73.390;2023-04-05T05:44:20;78865.81;;;14.54;49.42
63665;BME280;49820;33.966;73.390;2023-04-05T05:46:49;78904.72;;;14.76;49.33
63665;BME280;49820;33.966;73.390;2023-04-05T05:49:18;78867.13;;;14.55;48.28
63665;BME280;49820;33.966;73.390;2023-04-05T05:51:48;78895.00;;;14.85;44.99
63665;BME280;49820;33.966;73.390;2023-04-05T05:54:18;78863.44;;;15.21;45.58
63665;BME280;49820;33.966;73.390;2023-04-05T05:56:47;78891.75;;;15.74;48.86
63665;BME280;49820;33.966;73.390;2023-04-05T05:59:16;78883.03;;;16.26;46.64
63665;BME280;49820;33.966;73.390;2023-04-05T06:01:47;78884.59;;;16.37;45.83
63665;BME280;49820;33.966;73.390;2023-04-05T06:04:16;78900.53;;;16.60;38.63
63665;BME280;49820;33.966;73.390;2023-04-05T06:06:47;78899.28;;;17.39;39.23
63665;BME280;49820;33.966;73.390;2023-04-05T06:09:16;78851.25;;;17.41;43.63
63665;BME280;49820;33.966;73.390;2023-04-05T06:11:45;78880.97;;;18.17;46.94
63665;BME280;49820;33.966;73.390;2023-04-05T06:14:23;78910.34;;;18.40;34.24
63665;BME280;49820;33.966;73.390;2023-04-05T06:16:53;78878.16;;;18.34;36.55
63665;BME280;49820;33.966;73.390;2023-04-05T06:19:22;78789.19;;;18.27;40.40
63665;BME280;49820;33.966;73.390;2023-04-05T06:21:51;78888.00;;;19.80;42.79
63665;BME280;49820;33.966;73.390;2023-04-05T06:24:20;78888.19;;;20.16;39.91
63665;BME280;49820;33.966;73.390;2023-04-05T06:26:50;78899.50;;;19.80;36.93
63665;BME280;49820;33.966;73.390;2023-04-05T06:29:19;78885.94;;;20.46;43.00
63665;BME280;49820;33.966;73.390;2023-04-05T06:31:48;78889.19;;;20.99;42.01
63665;BME280;49820;33.966;73.390;2023-04-05T06:34:17;78864.31;;;20.44;38.02
63665;BME280;49820;33.966;73.390;2023-04-05T06:36:46;78871.81;;;20.43;38.14
63665;BME280;49820;33.966;73.390;2023-04-05T06:39:15;78849.50;;;21.04;38.75
63665;BME280;49820;33.966;73.390;2023-04-05T06:41:44;78861.47;;;20.97;38.95
63665;BME280;49820;33.966;73.390;2023-04-05T06:44:14;78855.34;;;21.09;39.00
63665;BME280;49820;33.966;73.390;2023-04-05T06:46:43;78872.34;;;21.45;40.59
63665;BME280;49820;33.966;73.390;2023-04-05T06:49:12;78871.28;;;21.99;37.67
63665;BME280;49820;33.966;73.390;2023-04-05T06:51:41;78860.03;;;22.29;36.04
63665;BME280;49820;33.966;73.390;2023-04-05T06:54:10;78863.31;;;21.49;30.86
63665;BME280;49820;33.966;73.390;2023-04-05T06:56:39;78844.97;;;22.53;41.11
63665;BME280;49820;33.966;73.390;2023-04-05T06:59:08;78862.16;;;23.28;37.13
63665;BME280;49820;33.966;73.390;2023-04-05T07:01:37;78870.13;;;23.85;36.48
63665;BME280;49820;33.966;73.390;2023-04-05T07:04:06;78829.06;;;23.98;36.59
63665;BME280;49820;33.966;73.390;2023-04-05T07:06:35;78849.19;;;24.03;36.76
63665;BME280;49820;33.966;73.390;2023-04-05T07:09:06;78853.16;;;22.64;36.80
63665;BME280;49820;33.966;73.390;2023-04-05T07:11:35;78866.91;;;23.06;36.96
63665;BME280;49820;33.966;73.390;2023-04-05T07:14:04;78850.25;;;22.78;44.84
63665;BME280;49820;33.966;73.390;2023-04-05T07:16:33;78852.75;;;22.25;34.88
63665;BME280;49820;33.966;73.390;2023-04-05T07:19:03;78847.25;;;22.15;34.28
63665;BME280;49820;33.966;73.390;2023-04-05T07:21:33;78838.88;;;22.97;38.20
63665;BME280;49820;33.966;73.390;2023-04-05T07:24:02;78845.56;;;23.64;36.05
63665;BME280;49820;33.966;73.390;2023-04-05T07:26:31;78813.94;;;22.37;34.77
63665;BME280;49820;33.966;73.390;2023-04-05T07:29:05;78847.09;;;23.40;37.97
63665;BME280;49820;33.966;73.390;2023-04-05T07:31:36;78846.97;;;23.95;35.33
63665;BME280;49820;33.966;73.390;2023-04-05T07:34:06;78841.13;;;24.22;31.70
63665;BME280;49820;33.966;73.390;2023-04-05T07:36:35;78812.97;;;23.62;32.38
63665;BME280;49820;33.966;73.390;2023-04-05T07:39:04;78837.50;;;23.94;33.24
63665;BME280;49820;33.966;73.390;2023-04-05T07:41:33;78824.31;;;24.18;37.04
63665;BME280;49820;33.966;73.390;2023-04-05T07:44:08;78833.88;;;23.87;34.42
63665;BME280;49820;33.966;73.390;2023-04-05T07:46:38;78799.84;;;23.75;37.21
63665;BME280;49820;33.966;73.390;2023-04-05T07:49:15;78804.75;;;24.56;31.75
63665;BME280;49820;33.966;73.390;2023-04-05T07:51:44;78810.94;;;24.65;35.71
63665;BME280;49820;33.966;73.390;2023-04-05T07:54:16;78813.69;;;24.14;36.03
63665;BME280;49820;33.966;73.390;2023-04-05T07:56:45;78797.91;;;23.63;31.06
63665;BME280;49820;33.966;73.390;2023-04-05T07:59:15;78786.66;;;24.50;38.17
63665;BME280;49820;33.966;73.390;2023-04-05T08:01:43;78787.81;;;24.94;33.34
63665;BME280;49820;33.966;73.390;2023-04-05T08:04:12;78771.72;;;24.79;37.54
63665;BME280;49820;33.966;73.390;2023-04-05T08:06:41;78790.81;;;24.09;38.21
63665;BME280;49820;33.966;73.390;2023-04-05T08:09:11;78775.63;;;24.01;36.04
63665;BME280;49820;33.966;73.390;2023-04-05T08:11:40;78765.53;;;23.89;36.90
63665;BME280;49820;33.966;73.390;2023-04-05T08:14:09;78754.63;;;23.89;36.45
63665;BME280;49820;33.966;73.390;2023-04-05T08:16:38;78775.38;;;23.94;33.12
63665;BME280;49820;33.966;73.390;2023-04-05T08:19:07;78772.22;;;24.11;36.55
63665;BME280;49820;33.966;73.390;2023-04-05T08:21:36;78743.97;;;24.25;36.63
63665;BME280;49820;33.966;73.390;2023-04-05T08:24:05;78762.16;;;25.19;38.81
63665;BME280;49820;33.966;73.390;2023-04-05T08:26:34;78769.25;;;25.24;33.40
63665;BME280;49820;33.966;73.390;2023-04-05T08:29:03;78766.69;;;25.41;36.59
63665;BME280;49820;33.966;73.390;2023-04-05T08:31:32;78773.63;;;25.88;34.14
63665;BME280;49820;33.966;73.390;2023-04-05T08:34:01;78759.13;;;25.42;36.82
63665;BME280;49820;33.966;73.390;2023-04-05T08:36:33;78742.06;;;25.61;33.69
63665;BME280;49820;33.966;73.390;2023-04-05T08:39:02;78739.06;;;25.93;35.37
63665;BME280;49820;33.966;73.390;2023-04-05T08:41:35;78753.50;;;25.05;29.33
63665;BME280;49820;33.966;73.390;2023-04-05T08:44:09;78745.50;;;24.33;36.94
63665;BME280;49820;33.966;73.390;2023-04-05T08:46:39;78751.53;;;24.85;34.67
63665;BME280;49820;33.966;73.390;2023-04-05T08:49:11;78751.34;;;25.36;38.84
63665;BME280;49820;33.966;73.390;2023-04-05T08:51:41;78744.16;;;25.22;32.87
63665;BME280;49820;33.966;73.390;2023-04-05T08:54:10;78736.38;;;25.16;37.47
63665;BME280;49820;33.966;73.390;2023-04-05T08:56:41;78752.84;;;23.64;32.07
63665;BME280;49820;33.966;73.390;2023-04-05T08:59:11;78746.97;;;24.81;34.06
63665;BME280;49820;33.966;73.390;2023-04-05T09:01:44;78756.84;;;24.87;30.01
63665;BME280;49820;33.966;73.390;2023-04-05T09:04:25;78738.41;;;22.70;31.44
63665;BME280;49820;33.966;73.390;2023-04-05T09:06:58;78731.06;;;21.90;33.20
63665;BME280;49820;33.966;73.390;2023-04-05T09:09:30;78710.06;;;22.22;36.65
63665;BME280;49820;33.966;73.390;2023-04-05T09:12:02;78676.63;;;22.24;35.31
63665;BME280;49820;33.966;73.390;2023-04-05T09:14:36;78697.72;;;22.02;37.70
63665;BME280;49820;33.966;73.390;2023-04-05T09:17:07;78732.56;;;21.76;33.16
63665;BME280;49820;33.966;73.390;2023-04-05T09:19:36;78711.38;;;21.09;34.90
63665;BME280;49820;33.966;73.390;2023-04-05T09:22:09;78713.53;;;21.42;37.38
63665;BME280;49820;33.966;73.390;2023-04-05T09:24:44;78725.50;;;21.92;37.83
63665;BME280;49820;33.966;73.390;2023-04-05T09:27:19;78710.59;;;21.80;35.21
63665;BME280;49820;33.966;73.390;2023-04-05T09:29:54;78696.72;;;21.84;35.63
63665;BME280;49820;33.966;73.390;2023-04-05T09:32:25;78699.75;;;21.33;33.51
63665;BME280;49820;33.966;73.390;2023-04-05T09:35:00;78700.34;;;21.47;36.52
63665;BME280;49820;33.966;73.390;2023-04-05T09:37:34;78691.91;;;21.74;35.95
63665;BME280;49820;33.966;73.390;2023-04-05T09:40:04;78683.97;;;20.66;39.25
63665;BME280;49820;33.966;73.390;2023-04-05T09:42:44;78699.78;;;20.51;40.41
63665;BME280;49820;33.966;73.390;2023-04-05T09:45:15;78686.94;;;19.88;40.52
63665;BME280;49820;33.966;73.390;2023-04-05T09:47:55;78655.28;;;20.33;38.71
63665;BME280;49820;33.966;73.390;2023-04-05T09:50:27;78648.13;;;20.28;39.70
63665;BME280;49820;33.966;73.390;2023-04-05T09:53:11;78688.06;;;20.42;40.16
63665;BME280;49820;33.966;73.390;2023-04-05T09:55:47;78661.91;;;20.72;41.27
63665;BME280;49820;33.966;73.390;2023-04-05T09:58:20;78680.72;;;20.15;39.37
63665;BME280;49820;33.966;73.390;2023-04-05T10:00:52;78673.44;;;20.11;40.06
63665;BME280;49820;33.966;73.390;2023-04-05T10:03:47;78673.81;;;19.17;42.40
63665;BME280;49820;33.966;73.390;2023-04-05T10:06:18;78672.66;;;19.64;39.81
63665;BME280;49820;33.966;73.390;2023-04-05T10:08:47;78659.25;;;20.11;43.17
63665;BME280;49820;33.966;73.390;2023-04-05T10:11:18;78665.56;;;19.31;43.94
63665;BME280;49820;33.966;73.390;2023-04-05T10:13:48;78639.59;;;19.49;42.28
63665;BME280;49820;33.966;73.390;2023-04-05T10:16:20;78677.41;;;19.64;41.52
63665;BME280;49820;33.966;73.390;2023-04-05T10:18:53;78677.72;;;19.20;45.38
63665;BME280;49820;33.966;73.390;2023-04-05T10:21:29;78647.56;;;19.00;41.34
63665;BME280;49820;33.966;73.390;2023-04-05T10:24:09;78674.03;;;19.38;45.01
63665;BME280;49820;33.966;73.390;2023-04-05T10:26:51;78641.13;;;18.28;46.37
63665;BME280;49820;33.966;73.390;2023-04-05T10:29:48;78678.72;;;18.19;46.80
63665;BME280;49820;33.966;73.390;2023-04-05T10:32:32;78649.22;;;17.73;44.55
63665;BME280;49820;33.966;73.390;2023-04-05T10:35:29;78665.16;;;17.35;44.89
63665;BME280;49820;33.966;73.390;2023-04-05T10:38:20;78671.06;;;17.10;47.88
63665;BME280;49820;33.966;73.390;2023-04-05T10:43:40;78656.63;;;17.16;52.15
63665;BME280;49820;33.966;73.390;2023-04-05T10:46:10;78664.16;;;17.43;49.96
63665;BME280;49820;33.966;73.390;2023-04-05T10:51:45;78649.25;;;17.14;51.34
63665;BME280;49820;33.966;73.390;2023-04-05T10:54:14;78664.25;;;16.97;53.64
63665;BME280;49820;33.966;73.390;2023-04-05T10:56:46;78661.53;;;16.21;53.07
63665;BME280;49820;33.966;73.390;2023-04-05T10:59:16;78666.72;;;16.25;55.50
63665;BME280;49820;33.966;73.390;2023-04-05T11:01:46;78643.28;;;15.90;53.97
63665;BME280;49820;33.966;73.390;2023-04-05T11:04:17;78652.81;;;16.35;56.98
63665;BME280;49820;33.966;73.390;2023-04-05T11:06:46;78639.47;;;15.85;56.33
63665;BME280;49820;33.966;73.390;2023-04-05T11:09:35;78648.38;;;15.65;54.32
63665;BME280;49820;33.966;73.390;2023-04-05T11:12:05;78668.13;;;15.26;57.15
63665;BME280;49820;33.966;73.390;2023-04-05T11:14:36;78670.66;;;14.97;57.83
63665;BME280;49820;33.966;73.390;2023-04-05T11:17:26;78675.22;;;14.65;57.30
63665;BME280;49820;33.966;73.390;2023-04-05T11:20:05;78665.59;;;14.53;61.37
63665;BME280;49820;33.966;73.390;2023-04-05T11:22:40;78665.97;;;14.05;59.95
63665;BME280;49820;33.966;73.390;2023-04-05T11:25:22;78655.59;;;13.95;60.88
63665;BME280;49820;33.966;73.390;2023-04-05T11:28:01;78642.25;;;13.93;64.08
63665;BME280;49820;33.966;73.390;2023-04-05T11:30:49;78667.22;;;13.90;65.56
63665;BME280;49820;33.966;73.390;2023-04-05T11:33:58;78677.84;;;13.54;62.42
63665;BME280;49820;33.966;73.390;2023-04-05T11:42:22;78661.16;;;13.12;61.29
63665;BME280;49820;33.966;73.390;2023-04-05T11:44:52;78663.31;;;13.08;62.73
63665;BME280;49820;33.966;73.390;2023-04-05T11:47:22;78636.25;;;12.74;62.37
63665;BME280;49820;33.966;73.390;2023-04-05T11:49:52;78606.84;;;12.51;63.08
63665;BME280;49820;33.966;73.390;2023-04-05T11:52:21;78637.50;;;12.56;62.72
63665;BME280;49820;33.966;73.390;2023-04-05T11:54:51;78646.97;;;12.74;64.81
63665;BME280;49820;33.966;73.390;2023-04-05T11:57:22;78660.97;;;12.56;63.78
63665;BME280;49820;33.966;73.390;2023-04-05T11:59:52;78642.50;;;12.25;63.59
63665;BME280;49820;33.966;73.390;2023-04-05T12:02:21;78621.88;;;11.76;64.25
63665;BME280;49820;33.966;73.390;2023-04-05T12:04:56;78663.25;;;12.24;64.25
63665;BME280;49820;33.966;73.390;2023-04-05T12:07:27;78646.88;;;11.91;66.22
63665;BME280;49820;33.966;73.390;2023-04-05T12:10:07;78636.66;;;11.75;65.22
63665;BME280;49820;33.966;73.390;2023-04-05T12:12:39;78642.75;;;11.48;64.94
63665;BME280;49820;33.966;73.390;2023-04-05T12:15:11;78653.66;;;11.40;70.39
63665;BME280;49820;33.966;73.390;2023-04-05T12:17:47;78663.97;;;11.55;68.87
63665;BME280;49820;33.966;73.390;2023-04-05T12:20:22;78664.25;;;11.44;72.05
63665;BME280;49820;33.966;73.390;2023-04-05T12:22:56;78676.91;;;11.21;72.78
63665;BME280;49820;33.966;73.390;2023-04-05T12:25:28;78651.84;;;11.10;70.72
63665;BME280;49820;33.966;73.390;2023-04-05T12:28:05;78662.88;;;10.96;71.32
63665;BME280;49820;33.966;73.390;2023-04-05T12:30:50;78630.03;;;10.50;71.32
63665;BME280;49820;33.966;73.390;2023-04-05T12:33:27;78662.38;;;10.64;73.87
63665;BME280;49820;33.966;73.390;2023-04-05T12:35:56;78679.22;;;10.59;73.01
63665;BME280;49820;33.966;73.390;2023-04-05T12:38:26;78693.88;;;10.60;72.18
63665;BME280;49820;33.966;73.390;2023-04-05T12:41:01;78686.31;;;10.42;72.69
63665;BME280;49820;33.966;73.390;2023-04-05T12:43:42;78697.16;;;10.36;72.86
63665;BME280;49820;33.966;73.390;2023-04-05T12:46:16;78644.94;;;9.85;71.43
63665;BME280;49820;33.966;73.390;2023-04-05T12:48:49;78691.03;;;10.10;69.70
63665;BME280;49820;33.966;73.390;2023-04-05T12:51:23;78695.63;;;10.14;67.92
63665;BME280;49820;33.966;73.390;2023-04-05T12:53:55;78669.63;;;9.83;70.30
63665;BME280;49820;33.966;73.390;2023-04-05T12:56:27;78640.50;;;9.44;73.13
63665;BME280;49820;33.966;73.390;2023-04-05T12:58:59;78678.97;;;9.53;72.13
63665;BME280;49820;33.966;73.390;2023-04-05T13:01:29;78695.38;;;9.66;72.09
63665;BME280;49820;33.966;73.390;2023-04-05T13:04:00;78696.72;;;9.65;68.61
63665;BME280;49820;33.966;73.390;2023-04-05T13:06:44;78694.50;;;9.45;67.67
63665;BME280;49820;33.966;73.390;2023-04-05T13:09:16;78676.03;;;9.35;66.53
63665;BME280;49820;33.966;73.390;2023-04-05T13:11:46;78717.50;;;9.61;67.04
63665;BME280;49820;33.966;73.390;2023-04-05T13:14:15;78691.47;;;9.30;69.57
63665;BME280;49820;33.966;73.390;2023-04-05T13:16:45;78707.38;;;9.34;67.01
63665;BME280;49820;33.966;73.390;2023-04-05T13:19:14;78717.31;;;9.38;67.02
63665;BME280;49820;33.966;73.390;2023-04-05T13:21:44;78714.78;;;9.32;67.90
63665;BME280;49820;33.966;73.390;2023-04-05T13:24:13;78701.88;;;9.09;67.51
63665;BME280;49820;33.966;73.390;2023-04-05T13:26:41;78692.81;;;8.96;70.26
63665;BME280;49820;33.966;73.390;2023-04-05T13:29:10;78710.53;;;9.10;69.36
63665;BME280;49820;33.966;73.390;2023-04-05T13:31:39;78725.63;;;9.22;68.54
63665;BME280;49820;33.966;73.390;2023-04-05T13:34:08;78696.81;;;8.97;70.04
63665;BME280;49820;33.966;73.390;2023-04-05T13:36:37;78728.47;;;9.13;70.35
63665;BME280;49820;33.966;73.390;2023-04-05T13:39:06;78733.16;;;9.11;70.20
63665;BME280;49820;33.966;73.390;2023-04-05T13:41:35;78730.69;;;9.01;70.99
63665;BME280;49820;33.966;73.390;2023-04-05T13:44:04;78714.38;;;8.84;70.97
63665;BME280;49820;33.966;73.390;2023-04-05T13:46:33;78727.59;;;8.90;71.75
63665;BME280;49820;33.966;73.390;2023-04-05T13:49:02;78724.44;;;8.79;73.34
63665;BME280;49820;33.966;73.390;2023-04-05T13:51:31;78698.84;;;8.60;72.38
63665;BME280;49820;33.966;73.390;2023-04-05T13:54:02;78738.84;;;8.93;71.43
63665;BME280;49820;33.966;73.390;2023-04-05T13:56:31;78706.00;;;8.69;72.19
63665;BME280;49820;33.966;73.390;2023-04-05T13:59:00;78680.50;;;8.43;72.97
63665;BME280;49820;33.966;73.390;2023-04-05T14:01:30;78719.25;;;8.73;75.24
63665;BME280;49820;33.966;73.390;2023-04-05T14:03:59;78696.28;;;8.54;77.84
63665;BME280;49820;33.966;73.390;2023-04-05T14:06:29;78719.38;;;8.65;78.75
63665;BME280;49820;33.966;73.390;2023-04-05T14:08:58;78697.91;;;8.38;79.37
63665;BME280;49820;33.966;73.390;2023-04-05T14:11:27;78690.78;;;8.27;80.32
63665;BME280;49820;33.966;73.390;2023-04-05T14:13:56;78667.84;;;8.05;82.26
63665;BME280;49820;33.966;73.390;2023-04-05T14:16:25;78685.00;;;8.14;82.85
63665;BME280;49820;33.966;73.390;2023-04-05T14:18:54;78702.94;;;8.16;82.47
63665;BME280;49820;33.966;73.390;2023-04-05T14:21:24;78704.78;;;8.25;82.46
63665;BME280;49820;33.966;73.390;2023-04-05T14:23:53;78699.59;;;8.17;83.19
63665;BME280;49820;33.966;73.390;2023-04-05T14:26:26;78723.28;;;8.33;83.85
63665;BME280;49820;33.966;73.390;2023-04-05T14:28:55;78689.81;;;8.03;81.76
63665;BME280;49820;33.966;73.390;2023-04-05T14:31:24;78719.41;;;8.24;80.27
63665;BME280;49820;33.966;73.390;2023-04-05T14:33:53;78708.69;;;8.28;80.40
63665;BME280;49820;33.966;73.390;2023-04-05T14:36:23;78704.03;;;8.29;80.44
63665;BME280;49820;33.966;73.390;2023-04-05T14:38:52;78746.19;;;8.55;81.02
63665;BME280;49820;33.966;73.390;2023-04-05T14:41:21;78752.19;;;8.56;82.63
63665;BME280;49820;33.966;73.390;2023-04-05T14:43:50;78730.00;;;8.28;84.34
63665;BME280;49820;33.966;73.390;2023-04-05T14:46:19;78695.84;;;8.02;88.20
63665;BME280;49820;33.966;73.390;2023-04-05T14:48:49;78735.19;;;8.36;85.03
63665;BME280;49820;33.966;73.390;2023-04-05T14:51:18;78689.69;;;8.12;86.47
63665;BME280;49820;33.966;73.390;2023-04-05T14:53:48;78741.09;;;8.43;89.33
63665;BME280;49820;33.966;73.390;2023-04-05T14:56:18;78720.19;;;8.19;98.18
63665;BME280;49820;33.966;73.390;2023-04-05T14:58:48;78727.84;;;7.96;100.00
63665;BME280;49820;33.966;73.390;2023-04-05T15:01:17;78755.13;;;7.96;100.00
63665;BME280;49820;33.966;73.390;2023-04-05T15:03:48;78748.72;;;7.81;100.00
63665;BME280;49820;33.966;73.390;2023-04-05T15:06:20;78754.94;;;7.63;100.00
63665;BME280;49820;33.966;73.390;2023-04-05T15:08:50;78786.06;;;7.73;100.00
63665;BME280;49820;33.966;73.390;2023-04-05T15:11:20;78786.91;;;7.61;100.00
63665;BME280;49820;33.966;73.390;2023-04-05T15:13:50;78747.81;;;7.03;100.00
63665;BME280;49820;33.966;73.390;2023-04-05T15:16:20;78793.28;;;6.76;100.00
63665;BME280;49820;33.966;73.390;2023-04-05T15:18:52;78779.38;;;6.08;100.00
63665;BME280;49820;33.966;73.390;2023-04-05T15:21:24;78785.13;;;5.52;100.00
63665;BME280;49820;33.966;73.390;2023-04-05T15:23:54;78769.59;;;4.97;100.00
63665;BME280;49820;33.966;73.390;2023-04-05T15:26:24;78806.63;;;5.09;100.00
63665;BME280;49820;33.966;73.390;2023-04-05T15:28:54;78798.09;;;4.94;100.00
63665;BME280;49820;33.966;73.390;2023-04-05T15:31:24;78800.75;;;4.92;100.00
63665;BME280;49820;33.966;73.390;2023-04-05T15:33:53;78812.56;;;5.08;100.00
63665;BME280;49820;33.966;73.390;2023-04-05T15:36:24;78771.09;;;4.70;100.00
63665;BME280;49820;33.966;73.390;2023-04-05T15:38:55;78813.34;;;4.88;100.00
63665;BME280;49820;33.966;73.390;2023-04-05T15:41:25;78763.25;;;4.49;100.00
63665;BME280;49820;33.966;73.390;2023-04-05T15:44:07;78803.41;;;4.90;100.00
63665;BME280;49820;33.966;73.390;2023-04-05T15:46:39;78790.78;;;5.01;100.00
63665;BME280;49820;33.966;73.390;2023-04-05T15:49:09;78763.13;;;4.72;100.00
63665;BME280;49820;33.966;73.390;2023-04-05T15:51:43;78790.81;;;4.93;100.00
63665;BME280;49820;33.966;73.390;2023-04-05T15:54:14;78806.03;;;4.90;100.00
63665;BME280;49820;33.966;73.390;2023-04-05T15:56:50;78808.13;;;4.74;100.00
63665;BME280;49820;33.966;73.390;2023-04-05T15:59:19;78814.78;;;4.60;100.00